KOQT  Oak Ridge Airport

Add Bookmark

Tennessee, United States

Status
Operational
Latitude Longitude
36° 1' 12" N 84° 13' 48" W
36.020000 -84.230000
Local (DST -4) UTC (GMT -5)
Oct 31, 2014 10:05 Oct 31, 2014 14:05
Sunrise-Sunset Local UTC
Begin Civil Twilight 07:31 11:31
Sunrise 07:58 11:58
Sunset 06:43 22:43
End Civil Twilight 07:09 23:09

Current Weather

METAR Observed VFR
KOQT 311353Z AUTO 00000KT 10SM FEW070 OVC120 08/06 A3000 Fri, Oct 31, 2014 @ 13:53 UTC
(12 Minutes ago)
Visual Flight Rules
Wind Visibility Clouds Conditions
Calm 10 statute miles
  • Few at 7,000' AGL
  • Overcast at 12,000' AGL
  • No significant weather
Temperatures Readings Precipitation
Current Temp 8°C (46°F)
Dewpoint 6°C (43°F)
Humidity 87%
Altimeter 30"Hg
Sea Level Pressure 1016.4mb
Field Elevation 908.79'
None Recorded

Additional weather within a 50nm radius of KOQT

Map ICAO Location
KTYS 17nm S (137°)
KGKT 35.4nm E (106°)
KMMI 40.6nm S (204°)
KCSV 41.7nm W (265°)
KMOR 42.5nm E (077°)
1A6 42.7nm N (034°)

24 Hour Weather History

Loading
-

24 Hour Weather Graphs

Loading
-

CheckWX.com is intended as a tool to help pilots better visualize weather data. It is not intended as a substitute for an official weather briefing obtained from a Flight Service Station. CheckWX.com does not meet the FAA requirements for an official pre-flight weather briefing. Therefore, it's important that pilots still call and obtain an official FSS pre-flight weather briefing.